Time;durP1;ratioP1;P1;durP2;ratioP2;P2;SDS_P1;SDS_P2;PMS_P1;PMS_P2;Temp;Humidity;BMP_temperature;BMP_pressure;BME280_temperature;BME280_humidity;BME280_pressure;Samples;Min_cycle;Max_cycle;Signal;HPM_P1;HPM_P2
2021/05/31 05:25:45;;;;;;;;;;;15.10;99.90;;;;;;4974781;28;20389;-80
2021/05/31 05:28:10;;;;;;;;;;;16.40;99.90;;;;;;4975680;28;20561;-81
2021/05/31 05:30:36;;;;;;;1.80;1.10;;;19.20;96.80;;;;;;4974246;28;19993;-81
2021/05/31 05:33:02;;;;;;;2.50;1.48;;;23.00;84.90;;;;;;4974827;28;20309;-81
2021/05/31 05:35:33;;;;;;;1.80;1.40;;;24.80;67.10;;;;;;4974925;28;20051;-81
2021/05/31 05:45:48;;;;;;;1.40;0.80;;;27.60;53.20;;;;;;4975987;28;20022;-81
2021/05/31 05:48:15;;;;;;;1.00;0.90;;;28.20;52.20;;;;;;4974806;28;20475;-80
2021/05/31 05:50:41;;;;;;;;;;;29.10;50.00;;;;;;4975340;28;20038;-80
2021/05/31 05:53:07;;;;;;;;;;;29.20;49.50;;;;;;4975189;28;19906;-81
2021/05/31 05:55:32;;;;;;;;;;;30.50;48.30;;;;;;4968129;28;20033;-81
2021/05/31 05:57:58;;;;;;;;;;;30.10;47.00;;;;;;4961183;28;19914;-81
2021/05/31 06:00:26;;;;;;;0.83;0.70;;;31.10;46.30;;;;;;4964741;28;19906;-81
2021/05/31 06:02:53;;;;;;;1.33;1.15;;;30.00;46.10;;;;;;4975639;28;20398;-80
2021/05/31 06:05:19;;;;;;;0.73;0.63;;;28.40;46.60;;;;;;4974188;28;20023;-80
2021/05/31 06:07:45;;;;;;;0.98;0.70;;;29.10;47.50;;;;;;4974481;28;20027;-83
2021/05/31 06:10:11;;;;;;;0.57;0.57;;;30.50;46.80;;;;;;4975225;28;20037;-82
2021/05/31 06:12:37;;;;;;;0.70;0.70;;;32.20;45.80;;;;;;4973474;28;20034;-81
2021/05/31 06:15:04;;;;;;;0.80;0.80;;;29.60;44.60;;;;;;4975068;28;20264;-80
2021/05/31 06:17:29;;;;;;;1.67;0.80;;;29.60;46.90;;;;;;4974628;28;20038;-82
2021/05/31 06:20:01;;;;;;;1.20;1.10;;;30.20;45.60;;;;;;4974735;28;20023;-82
2021/05/31 06:23:04;;;;;;;1.15;0.98;;;29.70;45.40;;;;;;4974411;28;20027;-81
2021/05/31 06:25:30;;;;;;;1.48;0.93;;;31.70;45.40;;;;;;4975944;28;20042;-82
2021/05/31 06:27:56;;;;;;;2.93;1.10;;;32.90;43.20;;;;;;4974489;28;20446;-81
2021/05/31 06:30:22;;;;;;;1.77;1.13;;;32.40;45.20;;;;;;4975469;28;20278;-82
2021/05/31 06:32:49;;;;;;;1.70;1.60;;;32.90;44.20;;;;;;4974525;28;20034;-81
2021/05/31 06:35:15;;;;;;;1.25;1.15;;;33.50;43.70;;;;;;4974416;28;19911;-81
2021/05/31 06:37:41;;;;;;;1.05;0.95;;;32.90;44.20;;;;;;4974321;28;20576;-82
2021/05/31 06:40:13;;;;;;;0.90;0.80;;;32.80;43.00;;;;;;4974243;28;20025;-81
2021/05/31 06:42:40;;;;;;;2.53;1.10;;;32.90;42.40;;;;;;4974570;28;20031;-82
2021/05/31 06:45:08;;;;;;;0.60;0.60;;;33.70;42.70;;;;;;4974344;28;20023;-81
2021/05/31 06:47:35;;;;;;;1.05;1.00;;;33.40;42.00;;;;;;4974186;28;20057;-82
2021/05/31 06:50:00;;;;;;;1.20;1.10;;;34.60;42.20;;;;;;4963482;28;20399;-83
2021/05/31 06:52:26;;;;;;;3.33;1.17;;;35.30;43.00;;;;;;4954970;28;20023;-82
2021/05/31 06:54:51;;;;;;;;;;;34.40;42.60;;;;;;4956241;29;19910;-82
2021/05/31 06:57:17;;;;;;;;;;;34.00;43.20;;;;;;4954910;29;19918;-83
2021/05/31 06:59:42;;;;;;;;;;;33.40;42.70;;;;;;4970656;28;19906;-83
2021/05/31 07:02:08;;;;;;;;;;;33.60;43.10;;;;;;4954744;28;20433;-82
2021/05/31 07:04:33;;;;;;;;;;;35.30;43.00;;;;;;4971089;28;19906;-83
2021/05/31 07:06:59;;;;;;;;;;;34.20;42.10;;;;;;4970799;28;19907;-82
2021/05/31 07:09:24;;;;;;;;;;;35.00;42.70;;;;;;4956927;28;19910;-85
2021/05/31 07:11:49;;;;;;;;;;;35.50;43.70;;;;;;4962315;28;20290;-83
2021/05/31 07:14:19;;;;;;;;;;;34.90;40.80;;;;;;4963937;28;20356;-82
2021/05/31 07:16:45;;;;;;;;;;;34.90;42.90;;;;;;4964752;28;20275;-83
2021/05/31 07:19:11;;;;;;;;;;;35.30;42.50;;;;;;4995445;28;19970;-82
2021/05/31 07:21:40;;;;;;;2.65;0.93;;;34.90;42.10;;;;;;4965182;28;20370;-82
2021/05/31 07:24:07;;;;;;;;;;;34.80;42.30;;;;;;4970486;28;20062;-82
2021/05/31 07:26:32;;;;;;;4.70;1.48;;;34.50;42.40;;;;;;4973642;28;19906;-82
2021/05/31 07:28:58;;;;;;;1.43;1.17;;;34.40;40.60;;;;;;4973395;28;20569;-82
2021/05/31 07:31:24;;;;;;;;;;;34.50;42.70;;;;;;4973460;28;19946;-82
2021/05/31 07:33:49;;;;;;;;;;;33.40;44.30;;;;;;4956925;29;19914;-82
2021/05/31 07:36:15;;;;;;;;;;;33.00;44.60;;;;;;4955376;29;20317;-83
2021/05/31 07:38:41;;;;;;;;;;;31.00;45.30;;;;;;4954231;29;19914;-83
2021/05/31 07:41:06;;;;;;;;;;;29.40;44.80;;;;;;4954151;29;19911;-82
2021/05/31 07:43:32;;;;;;;;;;;28.00;47.00;;;;;;4954410;29;19910;-81
2021/05/31 07:45:57;;;;;;;;;;;27.10;43.70;;;;;;4953950;29;20414;-83
2021/05/31 07:48:23;;;;;;;;;;;26.40;45.10;;;;;;4957390;28;20033;-82
2021/05/31 07:50:48;;;;;;;;;;;25.70;44.40;;;;;;4973231;28;19911;-81
2021/05/31 07:53:20;;;;;;;;;;;25.90;43.70;;;;;;4974413;28;20372;-82
2021/05/31 07:55:45;;;;;;;;;;;26.70;44.10;;;;;;4973183;28;19921;-82
2021/05/31 07:58:11;;;;;;;;;;;26.40;43.00;;;;;;4972670;28;19910;-82
2021/05/31 08:00:37;;;;;;;;;;;26.50;42.40;;;;;;4973190;28;20297;-82
2021/05/31 08:03:03;;;;;;;;;;;28.50;46.50;;;;;;4976771;28;20005;-81
2021/05/31 08:05:28;;;;;;;;;;;28.90;43.20;;;;;;4974659;28;19960;-81
2021/05/31 08:07:54;;;;;;;;;;;31.00;41.70;;;;;;4975105;28;19914;-82
2021/05/31 08:10:19;;;;;;;;;;;31.30;40.20;;;;;;4973756;28;20337;-81
2021/05/31 08:12:46;;;;;;;;;;;30.90;40.60;;;;;;4963577;28;20440;-80
2021/05/31 08:15:11;;;;;;;;;;;30.80;43.90;;;;;;4964381;28;19915;-81
2021/05/31 08:17:38;;;;;;;;;;;31.70;39.60;;;;;;4963235;28;19915;-82
2021/05/31 08:20:05;;;;;;;;;;;31.80;41.40;;;;;;4963629;28;20394;-81
2021/05/31 08:22:30;;;;;;;;;;;31.80;40.60;;;;;;4963940;28;19911;-80
2021/05/31 08:24:56;;;;;;;;;;;31.10;41.10;;;;;;4966377;28;20001;-81
2021/05/31 08:27:21;;;;;;;;;;;30.00;40.60;;;;;;4964806;28;19965;-82
2021/05/31 08:29:47;;;;;;;;;;;30.30;41.30;;;;;;4961700;28;19921;-80
2021/05/31 08:32:12;;;;;;;;;;;31.80;40.70;;;;;;4960897;28;20408;-81
2021/05/31 08:34:38;;;;;;;1.27;0.80;;;32.30;39.60;;;;;;4957465;28;19929;-80
2021/05/31 08:37:03;;;;;;;2.07;0.90;;;32.10;38.90;;;;;;4954690;28;20058;-80
2021/05/31 08:39:29;;;;;;;;;;;31.20;40.00;;;;;;4953918;29;20061;-80
2021/05/31 08:41:56;;;;;;;1.50;0.80;;;30.60;40.10;;;;;;4953543;29;19906;-81
2021/05/31 08:44:22;;;;;;;2.10;1.00;;;31.10;41.20;;;;;;4954312;29;20023;-81
2021/05/31 08:46:48;;;;;;;0.77;0.60;;;30.60;39.40;;;;;;4953525;29;20126;-82
2021/05/31 08:49:15;;;;;;;0.75;0.65;;;31.40;39.80;;;;;;4955194;28;20016;-80
2021/05/31 08:51:40;;;;;;;0.65;0.57;;;31.30;40.40;;;;;;4955007;28;20139;-82
2021/05/31 08:54:07;;;;;;;;;;;31.70;40.00;;;;;;4957378;28;20122;-81
2021/05/31 08:56:33;;;;;;;;;;;31.20;40.00;;;;;;4974213;28;19910;-81
2021/05/31 08:58:59;;;;;;;0.88;0.75;;;31.70;39.50;;;;;;4958541;28;20436;-81
2021/05/31 09:01:27;;;;;;;0.32;0.32;;;32.10;40.60;;;;;;4972612;28;20211;-81
2021/05/31 09:03:56;;;;;;;0.80;0.80;;;33.50;41.00;;;;;;4972749;28;20023;-82
2021/05/31 09:06:23;;;;;;;1.00;0.90;;;32.50;38.90;;;;;;4971948;28;20023;-81
2021/05/31 09:08:55;;;;;;;1.17;1.08;;;31.80;39.50;;;;;;4973559;28;20050;-82
2021/05/31 09:11:23;;;;;;;1.30;0.95;;;31.60;39.00;;;;;;4971730;28;20122;-81
2021/05/31 09:13:48;;;;;;;0.70;0.60;;;30.60;40.40;;;;;;4973597;28;20027;-81
2021/05/31 09:16:26;;;;;;;0.80;0.80;;;29.70;41.40;;;;;;4971936;28;20033;-81
2021/05/31 09:18:57;;;;;;;0.90;0.80;;;29.00;42.50;;;;;;4971199;28;20031;-81
2021/05/31 09:21:33;;;;;;;0.60;0.60;;;29.00;44.20;;;;;;4971994;28;20545;-82
2021/05/31 09:24:09;;;;;;;;;;;28.90;41.30;;;;;;4972208;28;19917;-83
2021/05/31 09:26:47;;;;;;;;;;;28.00;41.90;;;;;;4973608;28;20298;-83
2021/05/31 09:29:12;;;;;;;;;;;27.90;43.40;;;;;;4972018;28;20005;-83
2021/05/31 09:31:38;;;;;;;;;;;27.30;42.50;;;;;;4978636;28;19960;-82
2021/05/31 09:34:09;;;;;;;14.05;1.65;;;27.30;44.80;;;;;;4992365;28;19914;-81
2021/05/31 09:36:51;;;;;;;;;;;27.10;42.60;;;;;;4995278;28;20073;-82
2021/05/31 09:39:17;;;;;;;;;;;26.90;45.40;;;;;;4996431;28;19906;-82
2021/05/31 09:41:43;;;;;;;;;;;27.00;45.00;;;;;;4994954;28;19905;-83
2021/05/31 09:44:09;;;;;;;;;;;27.60;49.10;;;;;;4994779;28;19928;-82
2021/05/31 09:46:34;;;;;;;;;;;27.70;45.40;;;;;;4995005;28;19905;-83
2021/05/31 09:49:00;;;;;;;;;;;27.60;45.40;;;;;;4995039;28;20338;-81
2021/05/31 09:51:25;;;;;;;;;;;27.50;42.70;;;;;;4994914;28;19905;-82
2021/05/31 09:53:54;;;;;;;;;;;27.60;44.60;;;;;;4974863;28;20441;-82
2021/05/31 09:56:19;;;;;;;;;;;26.90;43.40;;;;;;4956058;28;19910;-81
2021/05/31 09:58:51;;;;;;;;;;;26.70;43.90;;;;;;4957223;28;19907;-82
2021/05/31 10:01:31;;;;;;;;;;;26.30;44.20;;;;;;4956015;29;19906;-81
2021/05/31 10:04:13;;;;;;;0.68;0.68;;;26.10;45.20;;;;;;4955028;29;19954;-83
2021/05/31 10:06:49;;;;;;;1.20;0.90;;;26.10;45.30;;;;;;4957253;28;20027;-82
2021/05/31 10:09:14;;;;;;;0.70;0.70;;;26.40;44.70;;;;;;4960160;28;20035;-82
2021/05/31 10:11:40;;;;;;;;;;;25.70;44.00;;;;;;4966343;28;20275;-82
2021/05/31 10:14:06;;;;;;;;;;;25.40;45.10;;;;;;4964683;28;19958;-83
2021/05/31 10:16:33;;;;;;;1.40;1.00;;;25.70;45.80;;;;;;4965294;28;19950;-83
2021/05/31 10:18:58;;;;;;;0.88;0.80;;;26.40;47.40;;;;;;4975146;28;20030;-82
2021/05/31 10:21:25;;;;;;;4.73;0.90;;;26.40;45.50;;;;;;4974744;28;20031;-81
2021/05/31 10:23:51;;;;;;;1.17;0.85;;;27.20;45.60;;;;;;4974432;28;20035;-82
2021/05/31 10:26:19;;;;;;;0.68;0.68;;;28.30;45.00;;;;;;4974774;28;20499;-82
2021/05/31 10:28:45;;;;;;;1.15;1.00;;;29.30;42.20;;;;;;4975500;28;20105;-82
2021/05/31 10:31:11;;;;;;;;;;;29.30;41.70;;;;;;4974890;28;20496;-81
2021/05/31 10:33:40;;;;;;;;;;;28.20;42.80;;;;;;4975567;28;19906;-82
2021/05/31 10:36:15;;;;;;;;;;;28.10;44.60;;;;;;4974656;28;19910;-84
2021/05/31 10:38:42;;;;;;;;;;;28.00;43.60;;;;;;4971122;28;19914;-82
2021/05/31 10:41:20;;;;;;;2.80;0.90;;;29.30;42.10;;;;;;4960173;28;19964;-82
2021/05/31 10:43:50;;;;;;;6.30;1.10;;;29.80;41.40;;;;;;4970530;28;20026;-82
2021/05/31 10:46:21;;;;;;;3.20;1.10;;;30.40;42.40;;;;;;4962979;28;20547;-82
2021/05/31 10:48:51;;;;;;;1.25;0.75;;;30.40;46.70;;;;;;4963687;28;20022;-82
2021/05/31 10:51:31;;;;;;;0.88;0.77;;;31.00;42.10;;;;;;4963697;28;20023;-83
2021/05/31 10:54:14;;;;;;;1.30;1.10;;;30.90;39.40;;;;;;4961956;28;20051;-81
2021/05/31 10:56:41;;;;;;;4.32;0.90;;;31.20;45.90;;;;;;4968417;28;20027;-81
2021/05/31 10:59:07;;;;;;;1.00;0.90;;;31.30;43.50;;;;;;4967994;28;20020;-81
2021/05/31 11:01:33;;;;;;;1.48;0.80;;;30.80;43.10;;;;;;4964718;28;20031;-81
2021/05/31 11:04:02;;;;;;;1.63;0.87;;;29.80;40.80;;;;;;4964836;28;20023;-83
2021/05/31 11:06:30;;;;;;;;;;;29.90;41.80;;;;;;4964948;28;20410;-81
2021/05/31 11:09:08;;;;;;;;;;;28.40;41.80;;;;;;4964454;28;19914;-82
2021/05/31 11:11:44;;;;;;;;;;;28.70;43.30;;;;;;4962841;28;19974;-82
2021/05/31 11:14:11;;;;;;;;;;;27.50;43.50;;;;;;4964032;28;20266;-79
2021/05/31 11:17:23;;;;;;;0.90;0.68;;;27.00;45.20;;;;;;4961871;28;19957;-84
2021/05/31 11:19:49;;;;;;;;;;;27.00;43.80;;;;;;4958177;28;20035;-81
2021/05/31 11:22:16;;;;;;;;;;;26.10;45.90;;;;;;4964822;28;20918;-82
2021/05/31 11:24:48;;;;;;;;;;;25.00;46.40;;;;;;4965622;28;20008;-82
2021/05/31 11:27:13;;;;;;;;;;;24.60;45.80;;;;;;4966175;28;19970;-81
2021/05/31 11:29:39;;;;;;;;;;;24.70;48.80;;;;;;4964512;28;20313;-82
2021/05/31 11:32:05;;;;;;;;;;;25.00;45.70;;;;;;4960186;28;19914;-81
2021/05/31 11:34:31;;;;;;;;;;;25.20;48.70;;;;;;4954117;29;19912;-81
2021/05/31 11:36:58;;;;;;;;;;;25.10;47.30;;;;;;4954377;29;20000;-82
2021/05/31 11:39:24;;;;;;;;;;;25.00;46.40;;;;;;4957207;28;19911;-82
2021/05/31 11:41:50;;;;;;;;;;;24.00;47.20;;;;;;4965021;28;19916;-83
2021/05/31 11:44:26;;;;;;;;;;;24.00;48.70;;;;;;4995655;28;19949;-81
2021/05/31 11:46:53;;;;;;;;;;;24.10;48.10;;;;;;4955290;28;19906;-81
2021/05/31 11:49:19;;;;;;;;;;;24.50;49.00;;;;;;4953819;29;20369;-81
2021/05/31 11:52:03;;;;;;;;;;;24.40;50.30;;;;;;4955083;28;19910;-81
2021/05/31 11:54:31;;;;;;;;;;;24.60;47.80;;;;;;4953648;28;19913;-81
2021/05/31 11:56:58;;;;;;;;;;;24.90;48.10;;;;;;4953739;29;20006;-82
2021/05/31 11:59:29;;;;;;;;;;;24.90;48.40;;;;;;4953472;29;19911;-82
2021/05/31 12:01:55;;;;;;;;;;;24.50;47.30;;;;;;4953662;28;19914;-81
2021/05/31 12:04:24;;;;;;;;;;;24.40;48.70;;;;;;4954571;28;19914;-81
2021/05/31 12:06:56;;;;;;;;;;;24.60;46.40;;;;;;4953596;29;19953;-80
2021/05/31 12:09:22;;;;;;;;;;;24.40;50.70;;;;;;4953265;29;20286;-81
2021/05/31 12:11:49;;;;;;;;;;;24.50;47.80;;;;;;4953330;28;19918;-81
2021/05/31 12:14:19;;;;;;;;;;;24.90;48.30;;;;;;4953376;29;19996;-81
2021/05/31 12:16:51;;;;;;;;;;;24.90;47.30;;;;;;4953280;29;20336;-83
2021/05/31 12:19:17;;;;;;;;;;;24.40;46.80;;;;;;4953051;29;20192;-81
2021/05/31 12:21:42;;;;;;;;;;;24.20;50.30;;;;;;4953442;28;19912;-80
2021/05/31 12:24:08;;;;;;;;;;;24.40;47.50;;;;;;4953461;29;19918;-81
2021/05/31 12:26:34;;;;;;;;;;;24.90;51.00;;;;;;4953585;29;19910;-81
2021/05/31 12:29:00;;;;;;;;;;;24.90;46.60;;;;;;4953167;29;20464;-81
2021/05/31 12:31:32;;;;;;;;;;;24.70;47.90;;;;;;4953179;28;19907;-81
2021/05/31 12:33:58;;;;;;;;;;;24.90;49.80;;;;;;4954830;28;20357;-80
2021/05/31 12:36:27;;;;;;;;;;;25.20;47.60;;;;;;4953256;29;19956;-81
2021/05/31 12:38:52;;;;;;;;;;;25.00;50.10;;;;;;4953300;29;19906;-81
2021/05/31 12:41:18;;;;;;;;;;;24.80;47.80;;;;;;4953042;28;20270;-81
2021/05/31 12:43:44;;;;;;;;;;;24.60;49.40;;;;;;4952994;29;19910;-81
2021/05/31 12:46:19;;;;;;;;;;;25.10;46.50;;;;;;4953153;29;19938;-82
2021/05/31 12:48:51;;;;;;;;;;;25.00;48.80;;;;;;4953038;29;19907;-81
2021/05/31 12:51:17;;;;;;;;;;;25.00;48.20;;;;;;4953150;28;20157;-80
2021/05/31 12:53:45;;;;;;;;;;;25.10;46.80;;;;;;4952815;28;19906;-81
2021/05/31 12:56:11;;;;;;;;;;;25.20;50.00;;;;;;4952763;29;19972;-81
2021/05/31 12:58:36;;;;;;;;;;;25.10;47.10;;;;;;4952971;29;20465;-80
2021/05/31 13:01:02;;;;;;;;;;;24.90;46.90;;;;;;4953091;28;19913;-81
2021/05/31 13:03:34;;;;;;;;;;;25.00;50.20;;;;;;4953044;29;19912;-81
2021/05/31 13:06:00;;;;;;;;;;;25.30;48.50;;;;;;4952705;28;19906;-81
2021/05/31 13:08:36;;;;;;;;;;;25.40;49.80;;;;;;4956683;29;19907;-81
2021/05/31 13:11:02;;;;;;;;;;;25.40;48.70;;;;;;4956761;28;19961;-81
2021/05/31 13:13:32;;;;;;;;;;;25.20;47.50;;;;;;4956593;29;20371;-81
2021/05/31 13:15:57;;;;;;;;;;;25.30;48.20;;;;;;4956554;29;19918;-81
2021/05/31 13:18:24;;;;;;;;;;;25.20;49.10;;;;;;4956174;29;19910;-81
2021/05/31 13:20:50;;;;;;;;;;;24.80;49.00;;;;;;4956474;28;20001;-81
2021/05/31 13:23:17;;;;;;;;;;;24.50;48.80;;;;;;4956102;29;19930;-82
2021/05/31 13:25:44;;;;;;;;;;;24.20;48.70;;;;;;4956143;29;19914;-81
2021/05/31 13:28:11;;;;;;;;;;;24.40;47.90;;;;;;4957504;28;20429;-80
2021/05/31 13:30:37;;;;;;;;;;;24.30;49.30;;;;;;4957262;28;19966;-81
2021/05/31 13:33:03;;;;;;;;;;;24.60;48.80;;;;;;4957546;28;19960;-81
2021/05/31 13:35:29;;;;;;;;;;;24.60;48.00;;;;;;4957038;29;19941;-82
2021/05/31 13:37:55;;;;;;;;;;;24.40;47.70;;;;;;4956437;29;19910;-82
2021/05/31 13:40:30;;;;;;;;;;;24.50;48.20;;;;;;4956017;28;20370;-81
2021/05/31 13:43:01;;;;;;;;;;;24.80;49.10;;;;;;4963627;28;19910;-82
2021/05/31 13:45:26;;;;;;;;;;;24.60;48.70;;;;;;4965748;28;20291;-81
2021/05/31 13:47:53;;;;;;;;;;;24.80;47.90;;;;;;4965188;28;19928;-81
2021/05/31 13:50:22;;;;;;;;;;;25.10;51.20;;;;;;4966376;28;19993;-81
2021/05/31 13:52:48;;;;;;;;;;;24.80;49.80;;;;;;4964816;28;19973;-81
2021/05/31 13:55:13;;;;;;;;;;;25.10;48.40;;;;;;4966902;28;19910;-80
2021/05/31 13:57:42;;;;;;;;;;;25.10;48.20;;;;;;4974992;28;19906;-82
2021/05/31 14:00:09;;;;;;;;;;;25.00;49.80;;;;;;4975303;28;20453;-81
2021/05/31 14:02:34;;;;;;;;;;;24.90;48.10;;;;;;4975728;28;19906;-82
2021/05/31 14:05:00;;;;;;;;;;;24.60;47.00;;;;;;4977301;28;19917;-82
2021/05/31 14:07:25;;;;;;;;;;;24.70;49.30;;;;;;4976055;28;19913;-82
2021/05/31 14:09:51;;;;;;;;;;;24.70;49.00;;;;;;4977071;28;19906;-82
2021/05/31 14:12:16;;;;;;;;;;;24.60;48.80;;;;;;4977005;28;20250;-82
2021/05/31 14:14:42;;;;;;;;;;;24.60;48.30;;;;;;4976503;28;19906;-81
2021/05/31 14:17:07;;;;;;;;;;;24.90;47.60;;;;;;4975362;28;20286;-81
2021/05/31 14:19:32;;;;;;;;;;;24.90;47.70;;;;;;4977348;28;19997;-82
2021/05/31 14:21:58;;;;;;;;;;;25.00;47.80;;;;;;4975723;28;19910;-81
2021/05/31 14:24:24;;;;;;;;;;;24.70;47.10;;;;;;4976298;28;19914;-81
2021/05/31 14:26:49;;;;;;;;;;;24.60;48.20;;;;;;4975557;28;20284;-82
2021/05/31 14:29:15;;;;;;;;;;;24.50;46.90;;;;;;4978229;28;19906;-82
2021/05/31 14:31:40;;;;;;;;;;;24.40;47.90;;;;;;4977724;28;20325;-82
2021/05/31 14:34:06;;;;;;;;;;;24.50;47.10;;;;;;4977205;28;19910;-81
2021/05/31 14:36:32;;;;;;;;;;;24.40;49.20;;;;;;4977386;28;19910;-81
2021/05/31 14:38:57;;;;;;;;;;;24.30;46.00;;;;;;4978175;28;19910;-81
2021/05/31 14:41:23;;;;;;;;;;;24.50;47.40;;;;;;4978813;28;20288;-81
2021/05/31 14:43:48;;;;;;;;;;;24.60;47.50;;;;;;4978156;28;19914;-81
2021/05/31 14:46:14;;;;;;;;;;;24.60;47.60;;;;;;4975752;28;19922;-81
2021/05/31 14:48:43;;;;;;;;;;;24.30;47.30;;;;;;4976232;28;19906;-82
2021/05/31 14:51:12;;;;;;;;;;;24.30;47.90;;;;;;4977179;28;19956;-81
2021/05/31 14:53:38;;;;;;;;;;;24.30;47.50;;;;;;4962562;28;19913;-81
2021/05/31 14:56:04;;;;;;;;;;;24.60;49.40;;;;;;4956757;29;19910;-81
2021/05/31 14:58:29;;;;;;;;;;;24.40;46.90;;;;;;4967544;28;20032;-80
2021/05/31 15:00:55;;;;;;;;;;;24.30;48.40;;;;;;4974101;28;19941;-81
2021/05/31 15:03:20;;;;;;;;;;;24.30;47.40;;;;;;4974692;28;19910;-81
2021/05/31 15:05:45;;;;;;;;;;;24.50;50.00;;;;;;4974747;28;19906;-81
2021/05/31 15:08:11;;;;;;;;;;;24.60;47.60;;;;;;4974765;28;19914;-81
2021/05/31 15:10:36;;;;;;;;;;;24.60;46.70;;;;;;4967773;28;19906;-80
2021/05/31 15:13:02;;;;;;;;;;;24.30;46.90;;;;;;4966349;28;19966;-81
2021/05/31 15:15:27;;;;;;;;;;;24.40;49.00;;;;;;4971748;28;19991;-80
2021/05/31 15:17:53;;;;;;;;;;;24.50;46.90;;;;;;4967076;28;19910;-81
2021/05/31 15:20:19;;;;;;;;;;;24.50;45.90;;;;;;4971018;28;19910;-80
2021/05/31 15:22:44;;;;;;;;;;;24.30;47.60;;;;;;4972544;28;19913;-82
2021/05/31 15:25:10;;;;;;;;;;;24.20;48.10;;;;;;4972764;28;20013;-81
2021/05/31 15:27:36;;;;;;;;;;;24.30;47.10;;;;;;4971675;28;19910;-80
2021/05/31 15:30:02;;;;;;;;;;;24.10;47.30;;;;;;4972188;28;20000;-80
2021/05/31 15:32:28;;;;;;;;;;;24.30;47.90;;;;;;4959076;28;20362;-81
2021/05/31 15:34:54;;;;;;;;;;;24.40;46.90;;;;;;4956635;28;19914;-81
2021/05/31 15:37:19;;;;;;;;;;;24.40;47.60;;;;;;4959097;28;19954;-81
2021/05/31 15:39:45;;;;;;;;;;;24.50;48.60;;;;;;4958945;28;19958;-81
2021/05/31 15:42:12;;;;;;;;;;;24.10;47.10;;;;;;4954251;29;19906;-80
2021/05/31 15:44:39;;;;;;;;;;;23.90;47.10;;;;;;4954340;29;19986;-82
2021/05/31 15:47:06;;;;;;;;;;;24.10;47.60;;;;;;4955279;28;19965;-81
2021/05/31 15:49:31;;;;;;;;;;;24.10;48.80;;;;;;4953904;29;20407;-82
2021/05/31 15:51:57;;;;;;;;;;;24.20;47.40;;;;;;4955133;29;19906;-81
2021/05/31 15:54:24;;;;;;;;;;;24.10;48.30;;;;;;4953884;29;19968;-80
2021/05/31 15:56:50;;;;;;;;;;;24.20;47.80;;;;;;4953754;29;19958;-81
2021/05/31 15:59:16;;;;;;;;;;;23.90;46.70;;;;;;4953649;29;20330;-81
2021/05/31 16:01:41;;;;;;;;;;;24.00;46.50;;;;;;4953720;29;20009;-82
2021/05/31 16:04:07;;;;;;;;;;;23.90;48.80;;;;;;4953824;29;19907;-81
2021/05/31 16:06:32;;;;;;;;;;;23.90;48.20;;;;;;4953237;29;19906;-81
2021/05/31 16:08:58;;;;;;;;;;;24.00;47.10;;;;;;4953411;29;20310;-81
2021/05/31 16:11:24;;;;;;;;;;;23.90;48.00;;;;;;4955169;28;19941;-82
2021/05/31 16:13:49;;;;;;;;;;;23.60;46.60;;;;;;4961611;28;19992;-81
2021/05/31 16:16:15;;;;;;;;;;;23.60;46.80;;;;;;4963885;28;19914;-81
2021/05/31 16:18:41;;;;;;;;;;;23.60;47.50;;;;;;4960529;28;20032;-80
2021/05/31 16:21:06;;;;;;;;;;;23.30;46.70;;;;;;4962237;28;19907;-80
2021/05/31 16:23:41;;;;;;;;;;;23.30;47.00;;;;;;4964581;28;20317;-81
2021/05/31 16:26:07;;;;;;;;;;;23.50;49.80;;;;;;4961868;28;19915;-81
2021/05/31 16:28:34;;;;;;;;;;;23.30;47.80;;;;;;4961484;28;19906;-81
2021/05/31 16:31:00;;;;;;;;;;;23.30;47.90;;;;;;4963618;28;19913;-81
2021/05/31 16:33:25;;;;;;;;;;;23.10;48.40;;;;;;4967783;28;20043;-81
2021/05/31 16:35:51;;;;;;;;;;;23.30;48.50;;;;;;4963715;28;20018;-80
2021/05/31 16:38:16;;;;;;;;;;;23.30;48.10;;;;;;4966452;28;20265;-81
2021/05/31 16:40:42;;;;;;;;;;;23.40;49.50;;;;;;4967518;28;19956;-81
2021/05/31 16:43:08;;;;;;;;;;;23.40;47.50;;;;;;4970726;28;20381;-81
2021/05/31 16:45:33;;;;;;;;;;;23.10;48.70;;;;;;4972170;28;19906;-80
2021/05/31 16:47:59;;;;;;;;;;;23.10;47.60;;;;;;4969933;28;19906;-80
2021/05/31 16:50:27;;;;;;;;;;;23.00;47.30;;;;;;4966556;28;19907;-80
2021/05/31 16:52:53;;;;;;;;;;;23.00;47.50;;;;;;4965431;28;19956;-81
2021/05/31 16:55:18;;;;;;;;;;;23.00;47.40;;;;;;4966881;28;19918;-80
2021/05/31 16:57:44;;;;;;;;;;;22.90;47.00;;;;;;4964362;28;20002;-81
2021/05/31 17:00:10;;;;;;;;;;;23.00;48.70;;;;;;4964185;28;20301;-82
2021/05/31 17:02:36;;;;;;;;;;;23.00;48.20;;;;;;4967773;28;19914;-80
2021/05/31 17:05:03;;;;;;;;;;;22.80;48.10;;;;;;4962550;28;20376;-80
2021/05/31 17:07:29;;;;;;;;;;;22.70;48.20;;;;;;4971146;28;19914;-81
2021/05/31 17:09:58;;;;;;;;;;;22.70;49.20;;;;;;4977043;28;19910;-81
2021/05/31 17:20:22;;;;;;;;;;;22.30;50.10;;;;;;4976988;28;19913;-80
2021/05/31 17:22:48;;;;;;;;;;;22.30;49.30;;;;;;4956261;29;20470;-81
2021/05/31 17:25:14;;;;;;;;;;;22.20;49.20;;;;;;4961260;28;19913;-81
2021/05/31 17:27:40;;;;;;;;;;;22.20;49.60;;;;;;4949430;28;20290;-82
2021/05/31 17:30:07;;;;;;;;;;;22.30;49.80;;;;;;4942334;29;19906;-81
2021/05/31 17:32:34;;;;;;;;;;;22.20;51.30;;;;;;4954842;28;19919;-81
2021/05/31 17:35:05;;;;;;;;;;;22.00;50.10;;;;;;4952133;29;20315;-81
2021/05/31 17:37:30;;;;;;;;;;;22.00;50.60;;;;;;4952550;29;20433;-81
2021/05/31 17:40:05;;;;;;;;;;;21.90;51.20;;;;;;4936448;29;20172;-82
2021/05/31 17:42:31;;;;;;;;;;;21.80;51.20;;;;;;4937798;29;19918;-81
2021/05/31 17:44:57;;;;;;;;;;;21.70;50.80;;;;;;4940040;29;19913;-81
2021/05/31 17:47:22;;;;;;;;;;;21.70;51.70;;;;;;4955257;28;19907;-80
2021/05/31 17:49:48;;;;;;;;;;;21.70;52.10;;;;;;4953088;28;20013;-82
2021/05/31 17:52:14;;;;;;;;;;;21.60;51.30;;;;;;4949988;28;19910;-81
2021/05/31 17:54:40;;;;;;;;;;;21.50;51.10;;;;;;4956028;28;19913;-81
2021/05/31 17:57:05;;;;;;;;;;;21.40;51.10;;;;;;4955936;28;20276;-80
2021/05/31 17:59:31;;;;;;;;;;;21.20;51.60;;;;;;4971448;28;19906;-79
2021/05/31 18:01:56;;;;;;;;;;;21.10;51.90;;;;;;4957059;28;19982;-81
2021/05/31 18:04:22;;;;;;;;;;;21.10;52.20;;;;;;4956920;28;19911;-82
2021/05/31 18:06:47;;;;;;;;;;;20.90;51.90;;;;;;4955863;28;19907;-81
2021/05/31 18:09:13;;;;;;;;;;;20.90;52.00;;;;;;4955546;28;19907;-82
2021/05/31 18:11:38;;;;;;;;;;;20.70;53.80;;;;;;4955762;28;20374;-82
2021/05/31 18:14:04;;;;;;;;;;;20.60;53.40;;;;;;4955180;28;19913;-80
2021/05/31 18:16:30;;;;;;;;;;;20.50;53.70;;;;;;4955368;28;20388;-81
2021/05/31 18:18:55;;;;;;;;;;;20.50;53.60;;;;;;4956319;28;20408;-79
2021/05/31 18:21:21;;;;;;;;;;;20.50;53.10;;;;;;4956296;28;19911;-81
2021/05/31 18:23:46;;;;;;;;;;;20.50;54.20;;;;;;4971752;28;19906;-81
2021/05/31 18:26:12;;;;;;;;;;;20.50;53.40;;;;;;4956154;28;20373;-81
2021/05/31 18:28:37;;;;;;;;;;;20.30;53.80;;;;;;4956083;28;20413;-80
2021/05/31 18:31:07;;;;;;;;;;;20.20;54.40;;;;;;4956519;28;19906;-83
2021/05/31 18:33:35;;;;;;;;;;;20.20;54.90;;;;;;4942525;28;20000;-82
2021/05/31 18:38:36;;;;;;;;;;;20.10;54.10;;;;;;4938095;29;19994;-81
2021/05/31 18:41:02;;;;;;;;;;;20.10;54.40;;;;;;4937640;28;19907;-82
2021/05/31 18:43:27;;;;;;;;;;;20.00;53.80;;;;;;4937802;29;19983;-81
2021/05/31 18:45:53;;;;;;;;;;;20.00;53.90;;;;;;4937060;29;19941;-81
2021/05/31 18:48:18;;;;;;;;;;;20.00;53.90;;;;;;4943475;28;19921;-81
2021/05/31 18:50:44;;;;;;;;;;;19.90;54.70;;;;;;4945896;28;19910;-81
2021/05/31 18:53:10;;;;;;;;;;;19.90;54.20;;;;;;4944452;29;19938;-82
2021/05/31 18:55:35;;;;;;;;;;;19.80;54.90;;;;;;4945967;29;19917;-81
2021/05/31 18:58:01;;;;;;;;;;;19.70;55.00;;;;;;4947456;29;19906;-82
2021/05/31 19:00:31;;;;;;;;;;;19.70;55.00;;;;;;4944411;29;19906;-82
2021/05/31 19:02:56;;;;;;;;;;;19.60;55.80;;;;;;4976033;28;19914;-81
2021/05/31 19:05:22;;;;;;;;;;;19.50;55.90;;;;;;4952810;28;19933;-80
2021/05/31 19:07:47;;;;;;;;;;;19.50;56.50;;;;;;4946973;29;19911;-80
2021/05/31 19:10:13;;;;;;;;;;;19.40;56.50;;;;;;4934149;29;19913;-81
2021/05/31 19:12:40;;;;;;;;;;;19.40;56.10;;;;;;4932428;29;19922;-80
2021/05/31 19:15:06;;;;;;;;;;;19.30;56.70;;;;;;4935253;28;19917;-80
2021/05/31 19:17:32;;;;;;;;;;;19.30;56.40;;;;;;4934763;28;19954;-81
2021/05/31 19:19:57;;;;;;;;;;;19.20;57.30;;;;;;4933754;29;20413;-81
2021/05/31 19:22:23;;;;;;;;;;;19.00;57.10;;;;;;4935147;28;19960;-80
2021/05/31 19:24:49;;;;;;;;;;;18.90;57.70;;;;;;4935056;29;19907;-82
2021/05/31 19:27:14;;;;;;;;;;;18.80;58.00;;;;;;4934350;29;19950;-80
2021/05/31 19:29:40;;;;;;;;;;;18.80;58.70;;;;;;4933947;28;20013;-80
2021/05/31 19:32:07;;;;;;;;;;;18.70;58.20;;;;;;4934171;28;19911;-80
2021/05/31 19:34:33;;;;;;;;;;;18.70;58.30;;;;;;4934171;28;19931;-80
2021/05/31 19:36:59;;;;;;;;;;;18.70;58.40;;;;;;4936635;28;20313;-80
2021/05/31 19:39:24;;;;;;;;;;;18.70;58.70;;;;;;4942385;29;20199;-80